sensor_id;sensor_type;location;lat;lon;timestamp;noise_LAeq;noise_LA_min;noise_LA_max;noise_LA01;noise_LA95
43787;Laerm;29409;49.306;8.500;2023-06-19T00:00:11;38.17;33.90;40.80;;
43787;Laerm;29409;49.306;8.500;2023-06-19T00:01:15;38.06;33.44;40.80;;
43787;Laerm;29409;49.306;8.500;2023-06-19T00:02:16;38.24;33.44;41.06;;
43787;Laerm;29409;49.306;8.500;2023-06-19T00:03:17;38.36;33.44;41.38;;
43787;Laerm;29409;49.306;8.500;2023-06-19T00:04:17;38.42;32.93;41.06;;
43787;Laerm;29409;49.306;8.500;2023-06-19T00:05:17;38.38;34.69;40.89;;
43787;Laerm;29409;49.306;8.500;2023-06-19T00:06:18;38.29;34.31;41.06;;
43787;Laerm;29409;49.306;8.500;2023-06-19T00:07:18;38.23;33.44;41.14;;
43787;Laerm;29409;49.306;8.500;2023-06-19T00:08:19;38.68;35.04;41.75;;
43787;Laerm;29409;49.306;8.500;2023-06-19T00:09:19;39.63;35.04;42.65;;
43787;Laerm;29409;49.306;8.500;2023-06-19T00:10:20;38.90;34.69;42.09;;
43787;Laerm;29409;49.306;8.500;2023-06-19T00:11:20;38.78;33.90;41.61;;
43787;Laerm;29409;49.306;8.500;2023-06-19T00:12:20;40.08;35.94;46.02;;
43787;Laerm;29409;49.306;8.500;2023-06-19T00:13:21;38.79;34.69;41.61;;
43787;Laerm;29409;49.306;8.500;2023-06-19T00:14:21;38.62;30.89;40.71;;
43787;Laerm;29409;49.306;8.500;2023-06-19T00:15:21;38.04;33.44;41.22;;
43787;Laerm;29409;49.306;8.500;2023-06-19T00:16:22;37.95;33.44;40.53;;
43787;Laerm;29409;49.306;8.500;2023-06-19T00:17:25;37.92;32.93;40.43;;
43787;Laerm;29409;49.306;8.500;2023-06-19T00:18:28;38.03;32.93;40.98;;
43787;Laerm;29409;49.306;8.500;2023-06-19T00:19:29;37.96;33.44;41.06;;
43787;Laerm;29409;49.306;8.500;2023-06-19T00:20:29;37.96;32.93;40.71;;
43787;Laerm;29409;49.306;8.500;2023-06-19T00:21:29;38.19;33.44;41.68;;
43787;Laerm;29409;49.306;8.500;2023-06-19T00:22:30;38.15;34.31;41.41;;
43787;Laerm;29409;49.306;8.500;2023-06-19T00:23:30;38.08;32.93;40.80;;
43787;Laerm;29409;49.306;8.500;2023-06-19T00:24:30;39.94;34.31;47.28;;
43787;Laerm;29409;49.306;8.500;2023-06-19T00:25:30;38.44;32.93;41.61;;
43787;Laerm;29409;49.306;8.500;2023-06-19T00:26:31;39.11;33.44;41.89;;
43787;Laerm;29409;49.306;8.500;2023-06-19T00:27:32;39.26;35.04;41.82;;
43787;Laerm;29409;49.306;8.500;2023-06-19T00:28:32;38.58;33.90;41.46;;
43787;Laerm;29409;49.306;8.500;2023-06-19T00:29:32;39.53;33.44;42.76;;
43787;Laerm;29409;49.306;8.500;2023-06-19T00:30:33;42.49;40.03;44.42;;
43787;Laerm;29409;49.306;8.500;2023-06-19T00:31:33;42.83;41.14;44.90;;
43787;Laerm;29409;49.306;8.500;2023-06-19T00:32:37;42.74;40.80;44.97;;
43787;Laerm;29409;49.306;8.500;2023-06-19T00:33:46;42.33;40.62;43.72;;
43787;Laerm;29409;49.306;8.500;2023-06-19T00:34:50;42.34;40.89;43.68;;
43787;Laerm;29409;49.306;8.500;2023-06-19T00:35:51;42.49;40.89;43.54;;
43787;Laerm;29409;49.306;8.500;2023-06-19T00:36:51;42.69;40.71;43.94;;
43787;Laerm;29409;49.306;8.500;2023-06-19T00:37:54;42.84;41.06;44.23;;
43787;Laerm;29409;49.306;8.500;2023-06-19T00:38:54;42.78;40.89;44.07;;
43787;Laerm;29409;49.306;8.500;2023-06-19T00:39:56;42.68;41.14;43.90;;
43787;Laerm;29409;49.306;8.500;2023-06-19T00:40:56;42.60;40.80;43.86;;
43787;Laerm;29409;49.306;8.500;2023-06-19T00:41:57;42.48;40.53;43.86;;
43787;Laerm;29409;49.306;8.500;2023-06-19T00:42:57;42.49;40.33;43.94;;
43787;Laerm;29409;49.306;8.500;2023-06-19T00:43:58;42.47;40.71;43.77;;
43787;Laerm;29409;49.306;8.500;2023-06-19T00:44:58;42.42;39.46;44.11;;
43787;Laerm;29409;49.306;8.500;2023-06-19T00:45:59;40.49;35.04;47.77;;
43787;Laerm;29409;49.306;8.500;2023-06-19T00:47:01;40.00;36.45;43.58;;
43787;Laerm;29409;49.306;8.500;2023-06-19T00:48:01;39.69;34.69;42.16;;
43787;Laerm;29409;49.306;8.500;2023-06-19T00:49:02;39.58;35.66;42.16;;
43787;Laerm;29409;49.306;8.500;2023-06-19T00:50:02;39.43;35.66;42.76;;
43787;Laerm;29409;49.306;8.500;2023-06-19T00:51:03;39.87;35.66;45.86;;
43787;Laerm;29409;49.306;8.500;2023-06-19T00:52:03;43.80;38.21;51.83;;
43787;Laerm;29409;49.306;8.500;2023-06-19T00:53:03;40.94;37.52;43.94;;
43787;Laerm;29409;49.306;8.500;2023-06-19T00:54:04;40.49;35.94;45.83;;
43787;Laerm;29409;49.306;8.500;2023-06-19T00:55:05;44.31;35.94;70.23;;
43787;Laerm;29409;49.306;8.500;2023-06-19T00:56:07;41.15;36.45;56.41;;
43787;Laerm;29409;49.306;8.500;2023-06-19T00:57:07;39.84;35.94;48.05;;
43787;Laerm;29409;49.306;8.500;2023-06-19T00:58:08;39.94;36.69;42.47;;
43787;Laerm;29409;49.306;8.500;2023-06-19T00:59:11;39.62;33.44;42.35;;
43787;Laerm;29409;49.306;8.500;2023-06-19T01:00:14;39.85;34.34;43.04;;
43787;Laerm;29409;49.306;8.500;2023-06-19T01:01:14;40.12;36.45;43.04;;
43787;Laerm;29409;49.306;8.500;2023-06-19T01:02:15;40.04;36.69;42.47;;
43787;Laerm;29409;49.306;8.500;2023-06-19T01:03:15;40.54;36.77;47.79;;
43787;Laerm;29409;49.306;8.500;2023-06-19T01:04:15;40.22;36.20;42.82;;
43787;Laerm;29409;49.306;8.500;2023-06-19T01:05:19;40.86;37.12;50.06;;
43787;Laerm;29409;49.306;8.500;2023-06-19T01:06:23;40.10;35.94;59.03;;
43787;Laerm;29409;49.306;8.500;2023-06-19T01:09:48;41.15;36.69;44.39;;
43787;Laerm;29409;49.306;8.500;2023-06-19T01:10:52;39.68;35.66;43.09;;
43787;Laerm;29409;49.306;8.500;2023-06-19T01:11:55;39.83;35.04;47.20;;
43787;Laerm;29409;49.306;8.500;2023-06-19T01:13:10;39.93;36.45;44.35;;
43787;Laerm;29409;49.306;8.500;2023-06-19T01:14:14;40.52;36.91;47.67;;
43787;Laerm;29409;49.306;8.500;2023-06-19T01:15:15;41.68;35.04;57.96;;
43787;Laerm;29409;49.306;8.500;2023-06-19T01:16:15;39.89;35.94;45.11;;
43787;Laerm;29409;49.306;8.500;2023-06-19T01:17:16;40.24;35.94;43.54;;
43787;Laerm;29409;49.306;8.500;2023-06-19T01:18:17;40.27;36.69;51.88;;
43787;Laerm;29409;49.306;8.500;2023-06-19T01:19:18;39.71;36.45;43.63;;
43787;Laerm;29409;49.306;8.500;2023-06-19T01:20:20;40.82;37.12;48.16;;
43787;Laerm;29409;49.306;8.500;2023-06-19T01:21:20;40.97;37.12;51.99;;
43787;Laerm;29409;49.306;8.500;2023-06-19T01:23:27;40.60;37.32;44.07;;
43787;Laerm;29409;49.306;8.500;2023-06-19T01:24:27;41.53;38.21;47.61;;
43787;Laerm;29409;49.306;8.500;2023-06-19T01:25:27;40.74;37.52;50.16;;
43787;Laerm;29409;49.306;8.500;2023-06-19T01:26:28;41.43;37.52;51.19;;
43787;Laerm;29409;49.306;8.500;2023-06-19T01:27:28;40.67;37.32;45.54;;
43787;Laerm;29409;49.306;8.500;2023-06-19T01:28:31;41.64;38.05;46.20;;
43787;Laerm;29409;49.306;8.500;2023-06-19T01:29:32;42.81;40.71;48.90;;
43787;Laerm;29409;49.306;8.500;2023-06-19T01:30:33;43.47;41.96;49.91;;
43787;Laerm;29409;49.306;8.500;2023-06-19T01:31:38;43.68;41.75;48.18;;
43787;Laerm;29409;49.306;8.500;2023-06-19T01:34:18;43.50;41.46;47.96;;
43787;Laerm;29409;49.306;8.500;2023-06-19T01:35:21;43.53;42.22;44.69;;
43787;Laerm;29409;49.306;8.500;2023-06-19T01:36:22;44.93;42.29;57.40;;
43787;Laerm;29409;49.306;8.500;2023-06-19T01:37:24;43.61;42.22;44.65;;
43787;Laerm;29409;49.306;8.500;2023-06-19T01:38:27;43.51;42.09;44.62;;
43787;Laerm;29409;49.306;8.500;2023-06-19T01:39:28;43.98;42.16;45.80;;
43787;Laerm;29409;49.306;8.500;2023-06-19T01:40:29;44.33;41.46;46.78;;
43787;Laerm;29409;49.306;8.500;2023-06-19T01:41:31;42.87;41.06;44.51;;
43787;Laerm;29409;49.306;8.500;2023-06-19T01:42:32;42.81;41.14;44.19;;
43787;Laerm;29409;49.306;8.500;2023-06-19T01:43:34;43.29;41.26;46.97;;
43787;Laerm;29409;49.306;8.500;2023-06-19T01:44:35;42.92;41.38;46.78;;
43787;Laerm;29409;49.306;8.500;2023-06-19T01:45:36;42.75;40.98;48.90;;
43787;Laerm;29409;49.306;8.500;2023-06-19T01:46:36;42.84;41.22;46.97;;
43787;Laerm;29409;49.306;8.500;2023-06-19T01:47:36;43.08;41.68;49.81;;
43787;Laerm;29409;49.306;8.500;2023-06-19T01:48:38;42.88;40.98;47.95;;
43787;Laerm;29409;49.306;8.500;2023-06-19T01:49:38;43.22;41.22;46.80;;
43787;Laerm;29409;49.306;8.500;2023-06-19T01:50:38;42.75;41.14;44.11;;
43787;Laerm;29409;49.306;8.500;2023-06-19T01:51:39;42.40;40.43;43.68;;
43787;Laerm;29409;49.306;8.500;2023-06-19T01:52:39;42.23;40.43;43.63;;
43787;Laerm;29409;49.306;8.500;2023-06-19T01:53:40;42.22;39.81;44.08;;
43787;Laerm;29409;49.306;8.500;2023-06-19T01:54:40;42.24;40.13;43.93;;
43787;Laerm;29409;49.306;8.500;2023-06-19T01:55:40;44.18;41.22;52.80;;
43787;Laerm;29409;49.306;8.500;2023-06-19T01:56:40;42.52;40.33;45.83;;
43787;Laerm;29409;49.306;8.500;2023-06-19T01:57:41;42.08;40.33;43.58;;
43787;Laerm;29409;49.306;8.500;2023-06-19T01:58:41;42.02;39.92;43.54;;
43787;Laerm;29409;49.306;8.500;2023-06-19T01:59:41;42.00;39.70;43.29;;
43787;Laerm;29409;49.306;8.500;2023-06-19T02:00:42;42.28;40.13;44.47;;
43787;Laerm;29409;49.306;8.500;2023-06-19T02:01:42;42.45;40.71;44.39;;
43787;Laerm;29409;49.306;8.500;2023-06-19T02:02:42;41.96;39.58;44.23;;
43787;Laerm;29409;49.306;8.500;2023-06-19T02:03:42;41.87;39.58;44.27;;
43787;Laerm;29409;49.306;8.500;2023-06-19T02:04:43;41.91;39.70;43.68;;
43787;Laerm;29409;49.306;8.500;2023-06-19T02:05:43;41.90;39.58;44.83;;
43787;Laerm;29409;49.306;8.500;2023-06-19T02:06:43;42.46;38.37;45.69;;
43787;Laerm;29409;49.306;8.500;2023-06-19T02:07:44;42.38;39.46;44.97;;
43787;Laerm;29409;49.306;8.500;2023-06-19T02:08:44;42.16;40.43;43.63;;
43787;Laerm;29409;49.306;8.500;2023-06-19T02:09:44;42.22;40.13;44.76;;
43787;Laerm;29409;49.306;8.500;2023-06-19T02:10:44;42.18;40.53;43.72;;
43787;Laerm;29409;49.306;8.500;2023-06-19T02:11:45;41.97;40.13;43.63;;
43787;Laerm;29409;49.306;8.500;2023-06-19T02:12:45;42.00;40.27;46.05;;
43787;Laerm;29409;49.306;8.500;2023-06-19T02:13:45;41.78;38.81;43.14;;
43787;Laerm;29409;49.306;8.500;2023-06-19T02:14:45;41.89;38.95;44.54;;
43787;Laerm;29409;49.306;8.500;2023-06-19T02:15:46;42.04;39.92;44.11;;
43787;Laerm;29409;49.306;8.500;2023-06-19T02:16:46;42.07;39.70;43.90;;
43787;Laerm;29409;49.306;8.500;2023-06-19T02:17:46;42.10;40.33;43.63;;
43787;Laerm;29409;49.306;8.500;2023-06-19T02:18:47;42.00;40.27;43.49;;
43787;Laerm;29409;49.306;8.500;2023-06-19T02:19:47;41.93;40.23;43.34;;
43787;Laerm;29409;49.306;8.500;2023-06-19T02:20:48;41.88;39.92;43.34;;
43787;Laerm;29409;49.306;8.500;2023-06-19T02:21:48;42.30;39.70;55.63;;
43787;Laerm;29409;49.306;8.500;2023-06-19T02:22:48;42.11;39.70;53.71;;
43787;Laerm;29409;49.306;8.500;2023-06-19T02:23:48;41.97;40.03;46.02;;
43787;Laerm;29409;49.306;8.500;2023-06-19T02:24:50;42.51;39.81;47.91;;
43787;Laerm;29409;49.306;8.500;2023-06-19T02:25:50;41.89;39.46;50.36;;
43787;Laerm;29409;49.306;8.500;2023-06-19T02:26:50;41.33;35.66;48.87;;
43787;Laerm;29409;49.306;8.500;2023-06-19T02:27:50;39.22;34.31;43.24;;
43787;Laerm;29409;49.306;8.500;2023-06-19T02:28:51;39.06;35.66;44.69;;
43787;Laerm;29409;49.306;8.500;2023-06-19T02:29:51;40.04;34.31;47.55;;
43787;Laerm;29409;49.306;8.500;2023-06-19T02:30:53;40.26;35.04;46.07;;
43787;Laerm;29409;49.306;8.500;2023-06-19T02:31:53;39.31;34.69;53.54;;
43787;Laerm;29409;49.306;8.500;2023-06-19T02:32:53;39.36;35.36;46.35;;
43787;Laerm;29409;49.306;8.500;2023-06-19T02:33:54;40.78;35.04;52.09;;
43787;Laerm;29409;49.306;8.500;2023-06-19T02:34:54;40.18;35.04;53.28;;
43787;Laerm;29409;49.306;8.500;2023-06-19T02:35:54;40.13;34.69;54.32;;
43787;Laerm;29409;49.306;8.500;2023-06-19T02:36:58;40.06;33.90;54.44;;
43787;Laerm;29409;49.306;8.500;2023-06-19T02:37:59;41.12;33.44;52.54;;
43787;Laerm;29409;49.306;8.500;2023-06-19T02:38:59;40.36;34.69;52.88;;
43787;Laerm;29409;49.306;8.500;2023-06-19T02:40:00;38.94;35.66;44.35;;
43787;Laerm;29409;49.306;8.500;2023-06-19T02:41:03;41.37;36.20;52.29;;
43787;Laerm;29409;49.306;8.500;2023-06-19T02:42:03;41.64;33.44;56.06;;
43787;Laerm;29409;49.306;8.500;2023-06-19T02:43:04;40.96;35.04;53.47;;
43787;Laerm;29409;49.306;8.500;2023-06-19T02:44:04;39.51;35.04;46.55;;
43787;Laerm;29409;49.306;8.500;2023-06-19T02:45:05;39.77;36.20;46.55;;
43787;Laerm;29409;49.306;8.500;2023-06-19T02:46:05;39.83;35.66;43.77;;
43787;Laerm;29409;49.306;8.500;2023-06-19T02:47:06;39.49;36.20;44.65;;
43787;Laerm;29409;49.306;8.500;2023-06-19T02:48:06;39.78;34.69;48.28;;
43787;Laerm;29409;49.306;8.500;2023-06-19T02:49:06;39.36;33.90;47.16;;
43787;Laerm;29409;49.306;8.500;2023-06-19T02:50:07;39.32;35.66;46.55;;
43787;Laerm;29409;49.306;8.500;2023-06-19T02:51:07;39.92;36.45;53.26;;
43787;Laerm;29409;49.306;8.500;2023-06-19T02:52:08;40.74;36.69;53.19;;
43787;Laerm;29409;49.306;8.500;2023-06-19T02:53:08;40.45;36.20;51.77;;
43787;Laerm;29409;49.306;8.500;2023-06-19T02:54:09;40.78;37.32;45.63;;
43787;Laerm;29409;49.306;8.500;2023-06-19T02:55:09;39.79;36.20;52.95;;
43787;Laerm;29409;49.306;8.500;2023-06-19T02:56:11;40.49;36.45;44.35;;
43787;Laerm;29409;49.306;8.500;2023-06-19T02:57:11;40.46;37.12;43.86;;
43787;Laerm;29409;49.306;8.500;2023-06-19T02:58:11;40.50;36.91;44.23;;
43787;Laerm;29409;49.306;8.500;2023-06-19T02:59:11;40.96;36.56;45.48;;
43787;Laerm;29409;49.306;8.500;2023-06-19T03:00:12;39.95;36.69;47.40;;
43787;Laerm;29409;49.306;8.500;2023-06-19T03:01:12;40.26;36.45;53.55;;
43787;Laerm;29409;49.306;8.500;2023-06-19T03:02:12;39.70;36.91;41.89;;
43787;Laerm;29409;49.306;8.500;2023-06-19T03:03:13;40.16;36.69;43.49;;
43787;Laerm;29409;49.306;8.500;2023-06-19T03:04:13;41.81;37.88;52.69;;
43787;Laerm;29409;49.306;8.500;2023-06-19T03:05:13;40.24;36.91;43.24;;
43787;Laerm;29409;49.306;8.500;2023-06-19T03:06:17;40.15;36.20;47.40;;
43787;Laerm;29409;49.306;8.500;2023-06-19T03:07:18;43.40;36.20;57.17;;
43787;Laerm;29409;49.306;8.500;2023-06-19T03:08:18;40.03;36.45;47.32;;
43787;Laerm;29409;49.306;8.500;2023-06-19T03:09:18;40.12;37.12;53.23;;
43787;Laerm;29409;49.306;8.500;2023-06-19T03:10:18;41.08;37.32;48.51;;
43787;Laerm;29409;49.306;8.500;2023-06-19T03:11:19;42.06;37.88;51.02;;
43787;Laerm;29409;49.306;8.500;2023-06-19T03:12:19;44.45;39.08;54.65;;
43787;Laerm;29409;49.306;8.500;2023-06-19T03:13:19;41.56;37.32;47.52;;
43787;Laerm;29409;49.306;8.500;2023-06-19T03:14:19;40.72;37.88;43.68;;
43787;Laerm;29409;49.306;8.500;2023-06-19T03:15:20;40.14;35.66;44.15;;
43787;Laerm;29409;49.306;8.500;2023-06-19T03:16:20;40.19;36.45;45.60;;
43787;Laerm;29409;49.306;8.500;2023-06-19T03:17:20;40.22;36.91;51.62;;
43787;Laerm;29409;49.306;8.500;2023-06-19T03:18:21;41.19;37.88;46.48;;
43787;Laerm;29409;49.306;8.500;2023-06-19T03:19:21;41.36;37.70;49.56;;
43787;Laerm;29409;49.306;8.500;2023-06-19T03:20:21;41.58;37.52;52.79;;
43787;Laerm;29409;49.306;8.500;2023-06-19T03:21:21;42.46;36.45;52.63;;
43787;Laerm;29409;49.306;8.500;2023-06-19T03:22:22;42.35;38.05;54.72;;
43787;Laerm;29409;49.306;8.500;2023-06-19T03:23:22;41.79;36.69;50.73;;
43787;Laerm;29409;49.306;8.500;2023-06-19T03:24:22;41.05;37.12;51.02;;
43787;Laerm;29409;49.306;8.500;2023-06-19T03:25:23;41.98;37.88;49.19;;
43787;Laerm;29409;49.306;8.500;2023-06-19T03:26:23;42.14;38.37;48.73;;
43787;Laerm;29409;49.306;8.500;2023-06-19T03:27:24;42.73;38.05;51.54;;
43787;Laerm;29409;49.306;8.500;2023-06-19T03:28:26;42.84;38.21;50.65;;
43787;Laerm;29409;49.306;8.500;2023-06-19T03:29:26;43.04;39.21;51.75;;
43787;Laerm;29409;49.306;8.500;2023-06-19T03:30:27;43.16;38.37;52.24;;
43787;Laerm;29409;49.306;8.500;2023-06-19T03:31:27;45.69;38.37;61.15;;
43787;Laerm;29409;49.306;8.500;2023-06-19T03:32:27;42.84;38.21;51.80;;
43787;Laerm;29409;49.306;8.500;2023-06-19T03:33:27;43.63;38.37;53.11;;
43787;Laerm;29409;49.306;8.500;2023-06-19T03:34:28;43.88;39.08;55.89;;
43787;Laerm;29409;49.306;8.500;2023-06-19T03:35:28;42.14;37.87;51.85;;
43787;Laerm;29409;49.306;8.500;2023-06-19T03:36:28;41.43;38.47;46.64;;
43787;Laerm;29409;49.306;8.500;2023-06-19T03:37:29;42.36;38.81;51.92;;
43787;Laerm;29409;49.306;8.500;2023-06-19T03:38:29;43.07;38.37;52.98;;
43787;Laerm;29409;49.306;8.500;2023-06-19T03:39:29;49.67;39.21;59.21;;
43787;Laerm;29409;49.306;8.500;2023-06-19T03:40:30;43.62;38.52;51.86;;
43787;Laerm;29409;49.306;8.500;2023-06-19T03:41:30;43.60;39.81;51.92;;
43787;Laerm;29409;49.306;8.500;2023-06-19T03:42:30;43.36;38.67;51.01;;
43787;Laerm;29409;49.306;8.500;2023-06-19T03:43:30;41.75;39.08;54.36;;
43787;Laerm;29409;49.306;8.500;2023-06-19T03:44:31;42.82;39.21;51.59;;
43787;Laerm;29409;49.306;8.500;2023-06-19T03:45:31;43.01;38.95;50.27;;
43787;Laerm;29409;49.306;8.500;2023-06-19T03:46:31;42.79;41.06;45.86;;
43787;Laerm;29409;49.306;8.500;2023-06-19T03:47:31;43.36;41.30;47.37;;
43787;Laerm;29409;49.306;8.500;2023-06-19T03:48:32;44.11;39.81;54.34;;
43787;Laerm;29409;49.306;8.500;2023-06-19T03:49:32;44.50;41.30;54.88;;
43787;Laerm;29409;49.306;8.500;2023-06-19T03:50:32;44.37;41.30;54.10;;
43787;Laerm;29409;49.306;8.500;2023-06-19T03:51:32;45.19;41.53;54.47;;
43787;Laerm;29409;49.306;8.500;2023-06-19T03:52:33;49.64;41.22;64.75;;
43787;Laerm;29409;49.306;8.500;2023-06-19T03:53:33;45.86;41.48;55.88;;
43787;Laerm;29409;49.306;8.500;2023-06-19T03:54:33;44.93;41.22;57.04;;
43787;Laerm;29409;49.306;8.500;2023-06-19T03:55:34;48.97;41.22;66.64;;
43787;Laerm;29409;49.306;8.500;2023-06-19T03:56:34;42.48;40.43;44.43;;
43787;Laerm;29409;49.306;8.500;2023-06-19T03:57:34;43.37;40.53;53.06;;
43787;Laerm;29409;49.306;8.500;2023-06-19T03:58:34;43.03;40.33;52.69;;
43787;Laerm;29409;49.306;8.500;2023-06-19T03:59:34;41.91;38.21;50.92;;
43787;Laerm;29409;49.306;8.500;2023-06-19T04:00:35;50.48;39.08;78.55;;
43787;Laerm;29409;49.306;8.500;2023-06-19T04:01:35;42.24;38.81;49.30;;
43787;Laerm;29409;49.306;8.500;2023-06-19T04:02:35;41.79;38.67;46.80;;
43787;Laerm;29409;49.306;8.500;2023-06-19T04:03:35;42.18;38.37;47.54;;
43787;Laerm;29409;49.306;8.500;2023-06-19T04:04:36;41.67;38.52;47.88;;
43787;Laerm;29409;49.306;8.500;2023-06-19T04:05:36;43.43;37.52;51.72;;
43787;Laerm;29409;49.306;8.500;2023-06-19T04:06:36;42.77;37.70;51.89;;
43787;Laerm;29409;49.306;8.500;2023-06-19T04:07:36;41.55;37.88;47.08;;
43787;Laerm;29409;49.306;8.500;2023-06-19T04:08:37;41.65;38.52;47.74;;
43787;Laerm;29409;49.306;8.500;2023-06-19T04:09:37;41.90;37.52;51.78;;
43787;Laerm;29409;49.306;8.500;2023-06-19T04:10:37;46.94;39.58;55.53;;
43787;Laerm;29409;49.306;8.500;2023-06-19T04:11:37;47.13;39.08;77.10;;
43787;Laerm;29409;49.306;8.500;2023-06-19T04:12:38;43.55;40.03;51.91;;
43787;Laerm;29409;49.306;8.500;2023-06-19T04:13:39;43.20;38.81;53.64;;
43787;Laerm;29409;49.306;8.500;2023-06-19T04:14:40;44.54;39.21;56.49;;
43787;Laerm;29409;49.306;8.500;2023-06-19T04:15:40;42.06;38.37;53.01;;
43787;Laerm;29409;49.306;8.500;2023-06-19T04:16:44;42.29;38.81;50.26;;
43787;Laerm;29409;49.306;8.500;2023-06-19T04:17:44;42.48;38.95;50.18;;
43787;Laerm;29409;49.306;8.500;2023-06-19T04:18:44;42.98;38.05;55.89;;
43787;Laerm;29409;49.306;8.500;2023-06-19T04:19:45;43.02;38.52;54.60;;
43787;Laerm;29409;49.306;8.500;2023-06-19T04:20:45;41.21;38.21;46.71;;
43787;Laerm;29409;49.306;8.500;2023-06-19T04:21:45;44.43;38.37;53.06;;
43787;Laerm;29409;49.306;8.500;2023-06-19T04:22:45;41.50;38.67;48.21;;
43787;Laerm;29409;49.306;8.500;2023-06-19T04:23:46;44.55;38.05;60.41;;
43787;Laerm;29409;49.306;8.500;2023-06-19T04:24:46;44.60;39.46;59.95;;
43787;Laerm;29409;49.306;8.500;2023-06-19T04:25:46;44.52;40.03;53.03;;
43787;Laerm;29409;49.306;8.500;2023-06-19T04:26:46;42.05;38.67;45.11;;
43787;Laerm;29409;49.306;8.500;2023-06-19T04:27:47;42.65;38.81;48.54;;
43787;Laerm;29409;49.306;8.500;2023-06-19T04:28:47;42.91;40.13;48.85;;
43787;Laerm;29409;49.306;8.500;2023-06-19T04:29:47;42.58;39.08;46.45;;
43787;Laerm;29409;49.306;8.500;2023-06-19T04:30:48;42.96;39.81;53.66;;
43787;Laerm;29409;49.306;8.500;2023-06-19T04:31:48;42.47;39.21;49.47;;
43787;Laerm;29409;49.306;8.500;2023-06-19T04:32:49;42.47;39.92;46.91;;
43787;Laerm;29409;49.306;8.500;2023-06-19T04:33:49;44.22;39.58;52.97;;
43787;Laerm;29409;49.306;8.500;2023-06-19T04:34:49;43.69;40.33;49.46;;
43787;Laerm;29409;49.306;8.500;2023-06-19T04:35:49;43.18;38.52;48.26;;
43787;Laerm;29409;49.306;8.500;2023-06-19T04:36:50;42.41;39.46;46.55;;
43787;Laerm;29409;49.306;8.500;2023-06-19T04:37:50;42.10;39.21;48.63;;
43787;Laerm;29409;49.306;8.500;2023-06-19T04:38:50;44.88;40.03;53.51;;
43787;Laerm;29409;49.306;8.500;2023-06-19T04:39:51;46.25;39.21;55.58;;
43787;Laerm;29409;49.306;8.500;2023-06-19T04:40:51;44.36;39.92;55.43;;
43787;Laerm;29409;49.306;8.500;2023-06-19T04:41:52;44.70;40.43;55.20;;
43787;Laerm;29409;49.306;8.500;2023-06-19T04:42:52;44.57;39.92;53.15;;
43787;Laerm;29409;49.306;8.500;2023-06-19T04:43:53;46.04;41.61;55.37;;
43787;Laerm;29409;49.306;8.500;2023-06-19T04:44:54;43.72;40.33;50.87;;
43787;Laerm;29409;49.306;8.500;2023-06-19T04:45:55;45.66;40.89;54.44;;
43787;Laerm;29409;49.306;8.500;2023-06-19T04:46:55;43.38;40.13;50.45;;
43787;Laerm;29409;49.306;8.500;2023-06-19T04:48:01;43.27;40.13;51.38;;
43787;Laerm;29409;49.306;8.500;2023-06-19T04:49:03;43.22;39.21;54.39;;
43787;Laerm;29409;49.306;8.500;2023-06-19T04:50:04;44.16;39.46;63.35;;
43787;Laerm;29409;49.306;8.500;2023-06-19T04:51:04;42.46;39.34;48.08;;
43787;Laerm;29409;49.306;8.500;2023-06-19T04:52:04;49.28;39.70;67.39;;
43787;Laerm;29409;49.306;8.500;2023-06-19T04:53:05;60.24;50.25;81.80;;
43787;Laerm;29409;49.306;8.500;2023-06-19T04:54:06;60.79;49.97;80.40;;
43787;Laerm;29409;49.306;8.500;2023-06-19T04:55:06;56.77;42.71;68.85;;
43787;Laerm;29409;49.306;8.500;2023-06-19T04:56:09;44.45;40.03;57.46;;
43787;Laerm;29409;49.306;8.500;2023-06-19T04:57:09;43.26;39.92;49.91;;
43787;Laerm;29409;49.306;8.500;2023-06-19T04:58:10;43.15;40.62;49.34;;
43787;Laerm;29409;49.306;8.500;2023-06-19T04:59:10;43.54;38.95;54.63;;
43787;Laerm;29409;49.306;8.500;2023-06-19T05:00:11;42.03;38.21;45.23;;
43787;Laerm;29409;49.306;8.500;2023-06-19T05:01:12;42.08;38.81;48.74;;
43787;Laerm;29409;49.306;8.500;2023-06-19T05:02:12;42.33;38.21;48.43;;
43787;Laerm;29409;49.306;8.500;2023-06-19T05:03:12;43.06;39.58;53.42;;
43787;Laerm;29409;49.306;8.500;2023-06-19T05:04:14;43.08;40.13;50.54;;
43787;Laerm;29409;49.306;8.500;2023-06-19T05:05:14;47.19;40.13;67.74;;
43787;Laerm;29409;49.306;8.500;2023-06-19T05:06:14;45.20;40.23;64.24;;
43787;Laerm;29409;49.306;8.500;2023-06-19T05:07:15;51.17;40.71;70.31;;
43787;Laerm;29409;49.306;8.500;2023-06-19T05:08:17;45.05;39.58;66.08;;
43787;Laerm;29409;49.306;8.500;2023-06-19T05:09:18;46.25;40.03;56.01;;
43787;Laerm;29409;49.306;8.500;2023-06-19T05:10:19;43.95;40.23;53.44;;
43787;Laerm;29409;49.306;8.500;2023-06-19T05:11:20;42.45;39.57;49.56;;
43787;Laerm;29409;49.306;8.500;2023-06-19T05:12:20;42.52;39.34;54.30;;
43787;Laerm;29409;49.306;8.500;2023-06-19T05:13:20;43.51;39.46;50.91;;
43787;Laerm;29409;49.306;8.500;2023-06-19T05:14:21;43.65;39.58;53.05;;
43787;Laerm;29409;49.306;8.500;2023-06-19T05:15:21;42.65;38.67;50.65;;
43787;Laerm;29409;49.306;8.500;2023-06-19T05:16:22;42.60;39.46;52.12;;
43787;Laerm;29409;49.306;8.500;2023-06-19T05:17:23;43.74;40.33;51.34;;
43787;Laerm;29409;49.306;8.500;2023-06-19T05:18:23;43.37;38.67;53.53;;
43787;Laerm;29409;49.306;8.500;2023-06-19T05:19:23;43.51;40.13;52.74;;
43787;Laerm;29409;49.306;8.500;2023-06-19T05:20:24;46.95;39.92;56.35;;
43787;Laerm;29409;49.306;8.500;2023-06-19T05:21:24;41.65;38.52;48.13;;
43787;Laerm;29409;49.306;8.500;2023-06-19T05:22:24;45.58;40.71;54.16;;
43787;Laerm;29409;49.306;8.500;2023-06-19T05:23:26;45.74;38.21;61.00;;
43787;Laerm;29409;49.306;8.500;2023-06-19T05:24:27;43.10;39.21;51.56;;
43787;Laerm;29409;49.306;8.500;2023-06-19T05:25:27;43.18;39.81;54.41;;
43787;Laerm;29409;49.306;8.500;2023-06-19T05:26:27;45.73;39.34;65.77;;
43787;Laerm;29409;49.306;8.500;2023-06-19T05:27:27;46.91;39.70;62.05;;
43787;Laerm;29409;49.306;8.500;2023-06-19T05:28:28;44.81;37.70;63.18;;
43787;Laerm;29409;49.306;8.500;2023-06-19T05:29:28;42.80;38.95;47.55;;
43787;Laerm;29409;49.306;8.500;2023-06-19T05:30:30;42.85;40.13;49.72;;
43787;Laerm;29409;49.306;8.500;2023-06-19T05:31:31;42.69;40.03;53.43;;
43787;Laerm;29409;49.306;8.500;2023-06-19T05:32:31;42.84;40.13;47.06;;
43787;Laerm;29409;49.306;8.500;2023-06-19T05:33:31;42.97;39.81;57.06;;
43787;Laerm;29409;49.306;8.500;2023-06-19T05:34:31;42.80;39.21;49.63;;
43787;Laerm;29409;49.306;8.500;2023-06-19T05:35:32;43.97;40.13;65.42;;
43787;Laerm;29409;49.306;8.500;2023-06-19T05:36:32;44.67;40.89;51.42;;
43787;Laerm;29409;49.306;8.500;2023-06-19T05:37:32;43.42;39.92;53.06;;
43787;Laerm;29409;49.306;8.500;2023-06-19T05:38:33;44.66;40.98;56.20;;
43787;Laerm;29409;49.306;8.500;2023-06-19T05:39:33;45.34;41.30;53.82;;
43787;Laerm;29409;49.306;8.500;2023-06-19T05:40:33;43.80;40.43;51.34;;
43787;Laerm;29409;49.306;8.500;2023-06-19T05:41:33;43.72;39.34;54.46;;
43787;Laerm;29409;49.306;8.500;2023-06-19T05:42:34;45.15;40.23;54.80;;
43787;Laerm;29409;49.306;8.500;2023-06-19T05:43:34;46.35;40.62;55.39;;
43787;Laerm;29409;49.306;8.500;2023-06-19T05:44:34;42.73;39.81;50.01;;